createdAt,value
2023-02-08T00:01:51.663Z,80.30
2023-02-08T00:03:58.748Z,80.40
2023-02-08T00:06:05.936Z,80.50
2023-02-08T00:08:12.903Z,80.60
2023-02-08T00:10:19.867Z,80.70
2023-02-08T00:12:26.757Z,80.90
2023-02-08T00:14:34.243Z,80.90
2023-02-08T00:16:41.283Z,81.00
2023-02-08T00:18:50.296Z,80.90
2023-02-08T00:20:58.352Z,81.00
2023-02-08T00:23:05.539Z,80.90
2023-02-08T00:25:12.669Z,80.90
2023-02-08T00:27:19.846Z,80.70
2023-02-08T00:29:26.665Z,80.60
2023-02-08T00:31:33.961Z,80.60
2023-02-08T00:33:40.837Z,80.60
2023-02-08T00:35:49.796Z,80.50
2023-02-08T00:37:59.226Z,80.30
2023-02-08T00:40:06.925Z,80.20
2023-02-08T00:42:13.949Z,80.00
2023-02-08T00:44:21.035Z,80.00
2023-02-08T00:46:27.906Z,79.90
2023-02-08T00:48:34.980Z,79.80
2023-02-08T00:50:41.952Z,79.70
2023-02-08T00:52:50.818Z,79.60
2023-02-08T00:54:57.702Z,79.50
2023-02-08T00:57:04.843Z,79.40
2023-02-08T00:59:11.766Z,79.40
2023-02-08T01:01:19.242Z,79.40
2023-02-08T01:03:27.000Z,79.30
2023-02-08T01:05:34.328Z,79.30
2023-02-08T01:07:41.565Z,79.30
2023-02-08T01:09:51.356Z,79.30
2023-02-08T01:11:58.896Z,79.30
2023-02-08T01:14:06.236Z,79.30
2023-02-08T01:16:15.101Z,79.40
2023-02-08T01:18:22.539Z,79.40
2023-02-08T01:20:31.112Z,79.50
2023-02-08T01:22:38.337Z,79.50
2023-02-08T01:24:45.311Z,79.30
2023-02-08T01:26:54.101Z,79.20
2023-02-08T01:29:01.314Z,79.00
2023-02-08T01:31:09.959Z,79.00
2023-02-08T01:33:16.864Z,78.80
2023-02-08T01:35:23.938Z,78.50
2023-02-08T01:37:30.863Z,78.20
2023-02-08T01:39:38.155Z,78.00
2023-02-08T01:41:47.681Z,77.80
2023-02-08T01:44:24.660Z,77.80
2023-02-08T01:46:31.791Z,77.60
2023-02-08T01:48:40.667Z,77.10
2023-02-08T01:50:55.782Z,76.90
2023-02-08T01:53:03.251Z,76.00
2023-02-08T01:55:16.036Z,76.00
2023-02-08T01:57:25.211Z,76.00
2023-02-08T01:59:40.744Z,75.90
2023-02-08T02:01:51.910Z,75.80
2023-02-08T02:04:00.682Z,75.80
2023-02-08T02:06:11.537Z,75.90
2023-02-08T02:08:19.087Z,75.80
2023-02-08T02:10:31.390Z,75.70
2023-02-08T02:12:41.065Z,75.60
2023-02-08T02:14:50.421Z,75.60
2023-02-08T02:16:57.593Z,75.70
2023-02-08T02:19:04.366Z,75.60
2023-02-08T02:21:37.813Z,75.50
2023-02-08T02:24:17.254Z,75.10
2023-02-08T02:27:02.016Z,74.90
2023-02-08T02:29:39.248Z,75.00
2023-02-08T02:32:05.939Z,74.60
2023-02-08T02:34:18.650Z,74.00
2023-02-08T02:36:35.971Z,73.30
2023-02-08T02:38:58.340Z,73.20
2023-02-08T02:41:12.968Z,72.80
2023-02-08T02:43:42.181Z,72.50
2023-02-08T02:45:55.750Z,72.20
2023-02-08T02:48:11.376Z,71.60
2023-02-08T02:50:27.106Z,71.30
2023-02-08T02:52:42.072Z,70.40
2023-02-08T02:54:52.970Z,70.60
2023-02-08T02:57:04.382Z,70.50
2023-02-08T02:59:13.764Z,70.00
2023-02-08T03:01:27.529Z,69.80
2023-02-08T03:03:38.059Z,69.50
2023-02-08T03:05:45.236Z,69.40
2023-02-08T03:08:30.099Z,68.80
2023-02-08T03:10:58.734Z,68.20
2023-02-08T03:13:09.145Z,67.90
2023-02-08T03:15:26.669Z,67.80
2023-02-08T03:17:45.426Z,67.10
2023-02-08T03:20:02.585Z,67.30
2023-02-08T03:22:17.396Z,66.40
2023-02-08T03:24:31.704Z,65.50
2023-02-08T03:26:43.852Z,65.90
2023-02-08T03:28:57.836Z,65.90
2023-02-08T03:31:11.097Z,65.50
2023-02-08T03:33:22.693Z,64.60
2023-02-08T03:35:35.872Z,64.50
2023-02-08T03:37:47.296Z,64.40
2023-02-08T03:39:59.449Z,63.50
2023-02-08T03:42:12.108Z,64.30
2023-02-08T03:44:23.026Z,63.70
2023-02-08T03:46:33.229Z,63.30
2023-02-08T03:48:42.101Z,62.30
2023-02-08T03:50:53.518Z,62.90
2023-02-08T03:53:01.225Z,62.70
2023-02-08T03:55:12.350Z,62.40
2023-02-08T03:57:24.373Z,62.40
2023-02-08T03:59:36.795Z,60.90
2023-02-08T04:01:47.970Z,61.70
2023-02-08T04:03:57.868Z,61.40
2023-02-08T04:06:06.427Z,60.90
2023-02-08T04:08:13.670Z,60.60
2023-02-08T04:10:20.483Z,59.50
2023-02-08T04:12:27.520Z,59.60
2023-02-08T04:14:34.542Z,59.00
2023-02-08T04:16:41.619Z,58.90
2023-02-08T04:18:48.337Z,58.60
2023-02-08T04:20:55.583Z,58.20
2023-02-08T04:23:04.035Z,58.10
2023-02-08T04:25:11.457Z,57.80
2023-02-08T04:27:18.399Z,56.40
2023-02-08T04:29:25.690Z,55.40
2023-02-08T04:31:32.702Z,56.00
2023-02-08T04:33:39.839Z,55.30
2023-02-08T04:35:47.077Z,54.50
2023-02-08T04:37:54.204Z,55.10
2023-02-08T04:40:03.039Z,55.20
2023-02-08T04:42:10.262Z,55.10
2023-02-08T04:44:17.593Z,55.20
2023-02-08T04:46:24.790Z,55.60
2023-02-08T04:48:31.600Z,55.10
2023-02-08T04:50:40.315Z,54.80
2023-02-08T04:52:47.448Z,53.90
2023-02-08T04:54:54.683Z,54.40
2023-02-08T04:57:03.303Z,54.40
2023-02-08T04:59:11.205Z,54.30
2023-02-08T05:01:19.842Z,54.30
2023-02-08T05:03:27.042Z,53.70
2023-02-08T05:05:34.330Z,52.90
2023-02-08T05:07:41.454Z,53.10
2023-02-08T05:09:48.328Z,52.60
2023-02-08T05:11:55.508Z,51.90
2023-02-08T05:14:03.970Z,52.00
2023-02-08T05:16:11.320Z,51.90
2023-02-08T05:18:18.281Z,51.70
2023-02-08T05:20:25.309Z,51.40
2023-02-08T05:22:34.800Z,51.30
2023-02-08T05:24:41.977Z,51.30
2023-02-08T05:26:48.853Z,51.30
2023-02-08T05:28:56.289Z,51.60
2023-02-08T05:31:11.135Z,51.40
2023-02-08T05:33:18.749Z,51.30
2023-02-08T05:35:25.570Z,51.10
2023-02-08T05:37:32.699Z,51.10
2023-02-08T05:39:39.567Z,50.60
2023-02-08T05:41:46.681Z,50.50
2023-02-08T05:43:53.475Z,50.50
2023-02-08T05:46:00.650Z,51.20
2023-02-08T05:48:09.265Z,51.60
2023-02-08T05:50:16.551Z,51.30
2023-02-08T05:52:23.372Z,51.40
2023-02-08T05:54:30.762Z,51.80
2023-02-08T05:56:37.989Z,51.30
2023-02-08T05:58:45.120Z,50.40
2023-02-08T06:00:51.954Z,50.50
2023-02-08T06:03:00.268Z,50.30
2023-02-08T06:05:09.122Z,50.60
2023-02-08T06:07:16.152Z,51.10
2023-02-08T06:09:23.279Z,51.30
2023-02-08T06:11:30.615Z,51.30
2023-02-08T06:13:37.489Z,51.30
2023-02-08T06:15:44.744Z,50.90
2023-02-08T06:17:51.647Z,50.00
2023-02-08T06:19:58.733Z,49.80
2023-02-08T06:22:07.196Z,49.70
2023-02-08T06:24:14.786Z,50.00
2023-02-08T06:26:22.882Z,51.30
2023-02-08T06:28:29.930Z,52.10
2023-02-08T06:30:36.734Z,52.80
2023-02-08T06:32:43.878Z,53.50
2023-02-08T06:34:52.386Z,53.50
2023-02-08T06:37:01.020Z,53.70
2023-02-08T06:39:09.712Z,53.50
2023-02-08T06:41:16.793Z,53.50
2023-02-08T06:43:23.816Z,54.00
2023-02-08T06:45:31.462Z,54.80
2023-02-08T06:47:38.486Z,54.90
2023-02-08T06:49:45.369Z,55.10
2023-02-08T06:51:52.295Z,54.80
2023-02-08T06:53:59.190Z,54.80
2023-02-08T06:56:08.135Z,55.20
2023-02-08T06:58:14.965Z,55.50
2023-02-08T07:00:22.556Z,55.60
2023-02-08T07:02:29.451Z,55.70
2023-02-08T07:04:36.435Z,54.60
2023-02-08T07:06:43.277Z,54.90
2023-02-08T07:08:51.124Z,54.90
2023-02-08T07:10:57.963Z,55.10
2023-02-08T07:13:09.212Z,54.90
2023-02-08T07:15:16.261Z,54.60
2023-02-08T07:17:23.280Z,54.40
2023-02-08T07:19:30.409Z,54.40
2023-02-08T07:21:37.696Z,54.60
2023-02-08T07:23:44.881Z,54.40
2023-02-08T07:26:01.428Z,53.30
2023-02-08T07:28:10.056Z,54.10
2023-02-08T07:30:17.997Z,54.40
2023-02-08T07:32:24.922Z,54.80
2023-02-08T07:34:34.457Z,55.00
2023-02-08T07:36:42.392Z,54.70
2023-02-08T07:38:49.490Z,54.20
2023-02-08T07:41:02.969Z,53.90
2023-02-08T07:43:11.791Z,54.00
2023-02-08T07:45:28.286Z,53.60
2023-02-08T07:47:35.578Z,53.70
2023-02-08T07:49:42.350Z,53.70
2023-02-08T07:51:49.580Z,53.00
2023-02-08T07:53:56.610Z,52.70
2023-02-08T07:56:03.849Z,52.50
2023-02-08T07:58:12.299Z,51.80
2023-02-08T08:00:21.029Z,52.10
2023-02-08T08:02:27.948Z,52.80
2023-02-08T08:04:35.226Z,52.90
2023-02-08T08:06:42.358Z,52.60
2023-02-08T08:08:49.948Z,52.10
2023-02-08T08:10:58.264Z,52.60
2023-02-08T08:13:05.748Z,52.40
2023-02-08T08:15:14.718Z,52.80
2023-02-08T08:17:23.028Z,52.60
2023-02-08T08:19:29.863Z,53.00
2023-02-08T08:21:36.886Z,53.10
2023-02-08T08:23:43.752Z,53.10
2023-02-08T08:25:50.933Z,53.40
2023-02-08T08:27:58.235Z,53.40
2023-02-08T08:30:05.508Z,53.40
2023-02-08T08:32:14.271Z,53.60
2023-02-08T08:34:21.453Z,53.50
2023-02-08T08:36:28.313Z,53.40
2023-02-08T08:38:35.558Z,53.10
2023-02-08T08:40:42.999Z,52.90
2023-02-08T08:42:50.031Z,52.90
2023-02-08T08:44:57.309Z,52.70
2023-02-08T08:47:04.628Z,52.80
2023-02-08T08:49:13.515Z,52.90
2023-02-08T08:51:20.495Z,53.10
2023-02-08T08:53:27.984Z,53.20
2023-02-08T08:55:34.855Z,53.40
2023-02-08T08:57:41.934Z,53.60
2023-02-08T08:59:48.658Z,53.70
2023-02-08T09:01:56.370Z,53.60
2023-02-08T09:04:03.430Z,53.60
2023-02-08T09:06:12.399Z,53.60
2023-02-08T09:08:19.226Z,53.60
2023-02-08T09:10:26.351Z,53.60
2023-02-08T09:12:33.227Z,53.60
2023-02-08T09:14:40.612Z,53.70
2023-02-08T09:16:49.240Z,53.90
2023-02-08T09:18:56.102Z,53.90
2023-02-08T09:21:07.951Z,53.70
2023-02-08T09:23:16.145Z,54.00
2023-02-08T09:25:23.379Z,53.70
2023-02-08T09:27:30.257Z,54.20
2023-02-08T09:29:37.650Z,54.20
2023-02-08T09:31:44.589Z,54.10
2023-02-08T09:33:52.345Z,54.30
2023-02-08T09:35:59.185Z,54.50
2023-02-08T09:38:06.554Z,54.60
2023-02-08T09:40:26.197Z,54.50
2023-02-08T09:42:46.490Z,54.20
2023-02-08T09:45:06.424Z,53.60
2023-02-08T09:47:21.598Z,54.30
2023-02-08T09:49:32.045Z,54.50
2023-02-08T09:51:42.921Z,54.70
2023-02-08T09:53:53.884Z,54.80
2023-02-08T09:56:04.247Z,54.90
2023-02-08T09:58:22.994Z,55.00
2023-02-08T10:00:37.896Z,55.10
2023-02-08T10:02:47.294Z,55.20
2023-02-08T10:05:01.608Z,55.10
2023-02-08T10:07:08.346Z,55.10
2023-02-08T10:09:18.155Z,55.30
2023-02-08T10:11:47.146Z,55.50
2023-02-08T10:14:12.563Z,55.60
2023-02-08T10:16:34.876Z,55.80
2023-02-08T10:18:49.717Z,55.80
2023-02-08T10:21:16.905Z,56.10
2023-02-08T10:23:41.235Z,56.30
2023-02-08T10:26:04.292Z,56.50
2023-02-08T10:28:31.638Z,56.70
2023-02-08T10:30:47.831Z,56.90
2023-02-08T10:33:12.171Z,57.30
2023-02-08T10:35:27.288Z,57.40
2023-02-08T10:37:36.374Z,57.60
2023-02-08T10:39:43.859Z,58.00
2023-02-08T10:41:51.431Z,58.30
2023-02-08T10:44:07.951Z,58.40
2023-02-08T10:46:23.523Z,58.70
2023-02-08T10:48:41.555Z,58.80
2023-02-08T10:50:49.303Z,59.00
2023-02-08T10:52:56.949Z,59.30
2023-02-08T10:55:04.022Z,59.60
2023-02-08T10:57:17.864Z,59.80
2023-02-08T10:59:30.060Z,60.40
2023-02-08T11:01:37.757Z,60.60
2023-02-08T11:04:05.151Z,60.80
2023-02-08T11:06:29.644Z,61.30
2023-02-08T11:08:36.570Z,61.70
2023-02-08T11:10:46.720Z,62.00
2023-02-08T11:13:01.994Z,62.20
2023-02-08T11:15:25.872Z,62.50
2023-02-08T11:17:35.102Z,62.90
2023-02-08T11:19:47.048Z,62.90
2023-02-08T11:21:54.015Z,63.20
2023-02-08T11:24:03.545Z,63.90
2023-02-08T11:26:22.358Z,63.60
2023-02-08T11:28:32.311Z,63.90
2023-02-08T11:30:40.878Z,63.70
2023-02-08T11:32:49.536Z,64.00
2023-02-08T11:35:14.126Z,64.00
2023-02-08T11:37:27.042Z,64.20
2023-02-08T11:39:39.914Z,64.30
2023-02-08T11:41:48.741Z,64.40
2023-02-08T11:44:02.725Z,64.70
2023-02-08T11:46:13.292Z,64.70
2023-02-08T11:48:27.168Z,65.10
2023-02-08T11:50:35.793Z,65.80
2023-02-08T11:52:47.166Z,66.10
2023-02-08T11:54:54.664Z,66.20
2023-02-08T11:57:06.698Z,66.40
2023-02-08T11:59:24.323Z,66.60
2023-02-08T12:01:34.988Z,66.80
2023-02-08T12:03:43.945Z,66.80
2023-02-08T12:05:58.156Z,66.90
2023-02-08T12:08:14.404Z,67.30
2023-02-08T12:10:51.859Z,67.30
2023-02-08T12:13:24.066Z,67.00
2023-02-08T12:15:33.443Z,66.90
2023-02-08T12:17:56.446Z,66.90
2023-02-08T12:20:40.502Z,66.60
2023-02-08T12:22:58.331Z,66.90
2023-02-08T12:25:19.796Z,67.10
2023-02-08T12:27:34.400Z,68.00
2023-02-08T12:29:48.627Z,69.10
2023-02-08T12:32:17.378Z,69.10
2023-02-08T12:34:34.490Z,70.40
2023-02-08T12:37:17.260Z,70.20
2023-02-08T12:39:55.874Z,70.40
2023-02-08T12:42:18.884Z,70.30
2023-02-08T12:44:34.965Z,70.50
2023-02-08T12:46:56.585Z,70.70
2023-02-08T12:49:15.475Z,70.50
2023-02-08T12:51:32.103Z,70.80
2023-02-08T12:53:44.241Z,70.70
2023-02-08T12:55:53.573Z,70.50
2023-02-08T12:58:03.322Z,70.40
2023-02-08T13:00:24.730Z,70.30
2023-02-08T13:02:40.341Z,70.50
2023-02-08T13:04:50.357Z,70.90
2023-02-08T13:07:02.564Z,71.00
2023-02-08T13:09:19.073Z,71.00
2023-02-08T13:11:33.819Z,70.60
2023-02-08T13:13:44.941Z,70.80
2023-02-08T13:15:59.068Z,71.30
2023-02-08T13:18:14.307Z,71.10
2023-02-08T13:20:41.621Z,71.30
2023-02-08T13:22:53.559Z,72.30
2023-02-08T13:25:08.445Z,72.00
2023-02-08T13:27:20.056Z,73.00
2023-02-08T13:29:28.333Z,72.00
2023-02-08T13:31:41.047Z,71.90
2023-02-08T13:34:00.806Z,72.10
2023-02-08T13:36:15.294Z,72.60
2023-02-08T13:38:30.113Z,72.80
2023-02-08T13:40:39.548Z,73.60
2023-02-08T13:42:51.747Z,74.30
2023-02-08T13:45:01.181Z,75.10
2023-02-08T13:47:09.288Z,75.80
2023-02-08T13:49:46.729Z,77.20
2023-02-08T13:51:57.596Z,76.90
2023-02-08T13:54:16.436Z,76.40
2023-02-08T13:56:43.451Z,77.00
2023-02-08T13:59:08.142Z,77.10
2023-02-08T14:01:26.160Z,77.50
2023-02-08T14:03:34.486Z,77.30
2023-02-08T14:05:51.855Z,77.70
2023-02-08T14:08:01.835Z,77.90
2023-02-08T14:10:31.511Z,77.60
2023-02-08T14:12:45.550Z,78.20
2023-02-08T14:15:11.370Z,78.80
2023-02-08T14:17:26.902Z,79.90
2023-02-08T14:19:35.816Z,79.80
2023-02-08T14:21:46.225Z,79.40
2023-02-08T14:24:04.709Z,79.50
2023-02-08T14:26:24.608Z,80.00
2023-02-08T14:28:35.187Z,79.60
2023-02-08T14:30:43.754Z,79.60
2023-02-08T14:32:53.834Z,79.40
2023-02-08T14:35:07.567Z,79.50
2023-02-08T14:37:31.773Z,79.50
2023-02-08T14:39:39.873Z,80.10
2023-02-08T14:41:55.573Z,79.60
2023-02-08T14:44:02.401Z,79.50
2023-02-08T14:46:47.103Z,79.60
2023-02-08T14:48:55.263Z,80.10
2023-02-08T14:51:21.031Z,79.90
2023-02-08T14:53:42.598Z,79.90
2023-02-08T14:55:53.411Z,79.90
2023-02-08T14:58:03.824Z,79.70
2023-02-08T15:00:21.764Z,79.60
2023-02-08T15:02:32.317Z,79.30
2023-02-08T15:04:46.737Z,78.80
2023-02-08T15:07:11.517Z,78.60
2023-02-08T15:09:22.898Z,78.20
2023-02-08T15:11:33.378Z,78.20
2023-02-08T15:13:41.995Z,78.50
2023-02-08T15:15:53.395Z,78.70
2023-02-08T15:18:01.248Z,78.80
2023-02-08T15:20:11.040Z,79.00
2023-02-08T15:22:35.339Z,78.90
2023-02-08T15:24:52.106Z,79.40
2023-02-08T15:27:00.537Z,79.70
2023-02-08T15:29:30.107Z,79.90
2023-02-08T15:31:42.959Z,79.90
2023-02-08T15:33:50.449Z,79.70
2023-02-08T15:36:01.222Z,79.40
2023-02-08T15:38:14.693Z,79.10
2023-02-08T15:40:31.555Z,78.80
2023-02-08T15:42:38.485Z,78.50
2023-02-08T15:44:48.326Z,78.40
2023-02-08T15:46:56.783Z,78.40
2023-02-08T15:49:04.227Z,78.40
2023-02-08T15:51:12.426Z,78.40
2023-02-08T15:53:20.790Z,78.40
2023-02-08T15:55:29.354Z,78.60
2023-02-08T15:57:45.138Z,78.70
2023-02-08T15:59:53.797Z,78.60
2023-02-08T16:02:03.794Z,78.60
2023-02-08T16:04:13.421Z,78.70
2023-02-08T16:06:26.666Z,78.90
2023-02-08T16:08:35.872Z,78.80
2023-02-08T16:10:46.942Z,79.00
2023-02-08T16:12:55.888Z,79.30
2023-02-08T16:15:05.214Z,79.30
2023-02-08T16:17:38.638Z,79.40
2023-02-08T16:19:54.856Z,79.80
2023-02-08T16:22:26.578Z,79.80
2023-02-08T16:24:33.743Z,80.40
2023-02-08T16:26:45.284Z,80.20
2023-02-08T16:28:59.003Z,80.20
2023-02-08T16:31:09.163Z,80.80
2023-02-08T16:33:17.528Z,80.30
2023-02-08T16:35:27.456Z,80.50
2023-02-08T16:37:36.756Z,80.60
2023-02-08T16:39:55.507Z,80.80
2023-02-08T16:42:15.967Z,80.90
2023-02-08T16:44:28.822Z,80.50
2023-02-08T16:46:48.088Z,80.50
2023-02-08T16:48:56.835Z,80.80
2023-02-08T16:51:04.495Z,80.90
2023-02-08T16:53:14.285Z,81.00
2023-02-08T16:55:23.350Z,81.50
2023-02-08T16:57:43.358Z,81.50
2023-02-08T16:59:50.628Z,82.00
2023-02-08T17:02:00.220Z,82.00
2023-02-08T17:04:25.205Z,81.90
2023-02-08T17:06:35.183Z,82.00
2023-02-08T17:08:42.450Z,82.10
2023-02-08T17:10:53.063Z,82.10
2023-02-08T17:13:19.989Z,82.10
2023-02-08T17:15:27.627Z,82.40
2023-02-08T17:17:36.519Z,82.50
2023-02-08T17:19:45.389Z,82.60
2023-02-08T17:21:52.520Z,82.70
2023-02-08T17:24:00.166Z,82.90
2023-02-08T17:26:07.244Z,82.90
2023-02-08T17:28:20.120Z,83.00
2023-02-08T17:30:29.677Z,83.00
2023-02-08T17:32:38.311Z,82.90
2023-02-08T17:34:45.437Z,82.80
2023-02-08T17:36:52.365Z,82.90
2023-02-08T17:38:59.550Z,82.90
2023-02-08T17:41:07.601Z,83.00
2023-02-08T17:43:15.375Z,83.10
2023-02-08T17:45:22.623Z,83.10
2023-02-08T17:47:29.704Z,83.10
2023-02-08T17:49:38.164Z,83.20
2023-02-08T17:51:45.294Z,83.20
2023-02-08T17:53:52.222Z,83.30
2023-02-08T17:55:59.456Z,83.30
2023-02-08T17:58:06.413Z,83.20
2023-02-08T18:00:16.225Z,83.30
2023-02-08T18:02:23.152Z,83.50
2023-02-08T18:04:30.282Z,83.70
2023-02-08T18:06:38.791Z,83.70
2023-02-08T18:08:46.548Z,83.80
2023-02-08T18:10:53.461Z,83.90
2023-02-08T18:13:00.793Z,83.90
2023-02-08T18:15:08.591Z,84.00
2023-02-08T18:17:15.837Z,84.00
2023-02-08T18:19:23.366Z,84.00
2023-02-08T18:21:33.874Z,84.10
2023-02-08T18:23:42.852Z,84.20
2023-02-08T18:25:49.808Z,84.40
2023-02-08T18:27:56.578Z,84.50
2023-02-08T18:30:03.944Z,84.60
2023-02-08T18:32:10.761Z,84.60
2023-02-08T18:34:18.447Z,84.70
2023-02-08T18:36:26.249Z,84.90
2023-02-08T18:38:33.577Z,85.10
2023-02-08T18:40:43.995Z,85.70
2023-02-08T18:42:51.831Z,86.30
2023-02-08T18:45:00.278Z,86.70
2023-02-08T18:47:08.496Z,86.90
2023-02-08T18:49:17.626Z,87.30
2023-02-08T18:51:25.632Z,87.80
2023-02-08T18:53:33.033Z,88.00
2023-02-08T18:55:42.288Z,88.30
2023-02-08T18:57:51.018Z,87.60
2023-02-08T18:59:58.085Z,87.70
2023-02-08T19:02:04.922Z,87.60
2023-02-08T19:04:12.511Z,87.40
2023-02-08T19:06:23.421Z,87.40
2023-02-08T19:08:30.510Z,87.30
2023-02-08T19:10:41.939Z,87.10
2023-02-08T19:12:49.009Z,86.70
2023-02-08T19:14:56.072Z,86.40
2023-02-08T19:17:03.847Z,85.80
2023-02-08T19:19:11.016Z,85.60
2023-02-08T19:21:19.733Z,85.60
2023-02-08T19:23:26.615Z,85.60
2023-02-08T19:25:34.131Z,85.30
2023-02-08T19:27:43.025Z,85.60
2023-02-08T19:29:49.893Z,85.50
2023-02-08T19:31:58.356Z,85.40
2023-02-08T19:34:06.056Z,85.40
2023-02-08T19:36:13.740Z,85.50
2023-02-08T19:38:21.094Z,85.40
2023-02-08T19:40:28.373Z,85.50
2023-02-08T19:42:35.289Z,85.40
2023-02-08T19:44:44.146Z,85.30
2023-02-08T19:46:56.007Z,85.60
2023-02-08T19:49:02.685Z,85.50
2023-02-08T19:51:10.324Z,86.40
2023-02-08T19:53:17.100Z,85.90
2023-02-08T19:55:24.945Z,85.70
2023-02-08T19:57:32.021Z,85.70
2023-02-08T19:59:39.148Z,85.80
2023-02-08T20:01:47.953Z,85.80
2023-02-08T20:03:57.106Z,85.50
2023-02-08T20:06:04.030Z,85.50
2023-02-08T20:08:11.565Z,85.60
2023-02-08T20:10:18.491Z,85.50
2023-02-08T20:12:25.626Z,85.40
2023-02-08T20:14:34.850Z,85.30
2023-02-08T20:16:42.174Z,85.20
2023-02-08T20:18:51.158Z,85.50
2023-02-08T20:21:04.942Z,85.90
2023-02-08T20:23:22.494Z,85.90
2023-02-08T20:25:31.794Z,86.10
2023-02-08T20:27:38.671Z,86.00
2023-02-08T20:29:45.834Z,86.10
2023-02-08T20:31:56.591Z,86.30
2023-02-08T20:34:07.796Z,86.50
2023-02-08T20:36:16.875Z,86.60
2023-02-08T20:38:24.060Z,86.50
2023-02-08T20:40:30.922Z,86.30
2023-02-08T20:42:38.308Z,86.10
2023-02-08T20:44:45.143Z,86.00
2023-02-08T20:46:52.317Z,85.80
2023-02-08T20:49:02.265Z,85.70
2023-02-08T20:51:12.454Z,85.70
2023-02-08T20:53:19.452Z,85.80
2023-02-08T20:55:26.779Z,86.10
2023-02-08T20:57:33.608Z,86.20
2023-02-08T20:59:40.792Z,86.30
2023-02-08T21:01:47.762Z,86.30
2023-02-08T21:03:57.041Z,86.40
2023-02-08T21:06:03.971Z,86.40
2023-02-08T21:08:13.096Z,86.40
2023-02-08T21:10:25.552Z,86.40
2023-02-08T21:12:33.496Z,86.50
2023-02-08T21:14:40.425Z,86.50
2023-02-08T21:16:49.248Z,86.70
2023-02-08T21:18:59.349Z,86.90
2023-02-08T21:21:09.547Z,87.10
2023-02-08T21:23:19.444Z,87.30
2023-02-08T21:25:26.319Z,87.60
2023-02-08T21:27:33.599Z,87.70
2023-02-08T21:29:40.525Z,88.00
2023-02-08T21:31:49.026Z,88.30
2023-02-08T21:33:56.434Z,88.90
2023-02-08T21:36:05.963Z,89.60
2023-02-08T21:38:12.766Z,90.10
2023-02-08T21:40:21.608Z,90.50
2023-02-08T21:42:28.485Z,90.70
2023-02-08T21:44:36.531Z,90.50
2023-02-08T21:46:43.395Z,90.00
2023-02-08T21:49:04.004Z,89.90
2023-02-08T21:51:27.857Z,89.90
2023-02-08T21:53:51.389Z,89.90
2023-02-08T21:56:00.120Z,89.90
2023-02-08T21:58:07.131Z,89.80
2023-02-08T22:00:15.223Z,89.70
2023-02-08T22:02:26.001Z,90.10
2023-02-08T22:04:32.933Z,90.20
2023-02-08T22:06:38.776Z,90.00
2023-02-08T22:08:45.601Z,90.10
2023-02-08T22:10:58.500Z,90.20
2023-02-08T22:13:07.543Z,90.20
2023-02-08T22:15:16.420Z,90.20
2023-02-08T22:17:23.219Z,90.20
2023-02-08T22:19:30.478Z,90.10
2023-02-08T22:21:37.944Z,90.10
2023-02-08T22:23:45.093Z,90.00
2023-02-08T22:25:52.019Z,90.10
2023-02-08T22:27:59.113Z,90.10
2023-02-08T22:30:08.227Z,90.10
2023-02-08T22:32:17.887Z,90.00
2023-02-08T22:34:25.097Z,90.00
2023-02-08T22:36:32.386Z,90.00
2023-02-08T22:38:39.973Z,90.20
2023-02-08T22:40:47.319Z,90.30
2023-02-08T22:42:54.439Z,90.50
2023-02-08T22:45:01.633Z,90.90
2023-02-08T22:47:11.362Z,91.30
2023-02-08T22:49:18.597Z,91.70
2023-02-08T22:51:25.544Z,92.50
2023-02-08T22:53:32.600Z,92.80
2023-02-08T22:55:39.528Z,93.30
2023-02-08T22:57:46.707Z,93.60
2023-02-08T22:59:53.539Z,93.50
2023-02-08T23:02:01.161Z,93.40
2023-02-08T23:04:10.099Z,92.90
2023-02-08T23:06:19.990Z,92.10
2023-02-08T23:08:26.916Z,91.70
2023-02-08T23:10:34.027Z,92.00
2023-02-08T23:12:40.924Z,92.00
2023-02-08T23:14:48.047Z,92.50
2023-02-08T23:16:54.975Z,92.70
2023-02-08T23:19:02.138Z,92.60
2023-02-08T23:21:16.411Z,92.10
2023-02-08T23:23:23.795Z,91.80
2023-02-08T23:25:30.719Z,91.90
2023-02-08T23:27:37.802Z,92.10
2023-02-08T23:29:44.622Z,92.30
2023-02-08T23:31:51.887Z,92.50
2023-02-08T23:33:58.772Z,92.70
2023-02-08T23:36:09.391Z,92.70
2023-02-08T23:38:17.900Z,92.30
2023-02-08T23:40:25.337Z,92.00
2023-02-08T23:42:32.175Z,91.90
2023-02-08T23:44:39.348Z,91.70
2023-02-08T23:46:46.226Z,91.70
2023-02-08T23:48:53.499Z,91.70
2023-02-08T23:51:04.369Z,91.60
2023-02-08T23:53:11.493Z,91.70
2023-02-08T23:55:20.121Z,91.80
2023-02-08T23:57:27.310Z,91.80
2023-02-08T23:59:34.225Z,91.60
